sensor_id;sensor_type;location;lat;lon;timestamp;temperature;humidity
53410;DHT22;66590;50.734;4.246;2023-06-19T00:00:53;19.20;99.90
53410;DHT22;66590;50.734;4.246;2023-06-19T00:03:21;19.20;99.90
53410;DHT22;66590;50.734;4.246;2023-06-19T00:05:48;19.50;99.90
53410;DHT22;66590;50.734;4.246;2023-06-19T00:08:15;19.50;99.90
53410;DHT22;66590;50.734;4.246;2023-06-19T00:10:42;19.60;99.90
53410;DHT22;66590;50.734;4.246;2023-06-19T00:13:09;19.80;99.90
53410;DHT22;66590;50.734;4.246;2023-06-19T00:15:36;19.80;99.90
53410;DHT22;66590;50.734;4.246;2023-06-19T00:18:03;19.90;99.90
53410;DHT22;66590;50.734;4.246;2023-06-19T00:20:33;19.90;99.90
53410;DHT22;66590;50.734;4.246;2023-06-19T00:23:00;19.90;99.90
53410;DHT22;66590;50.734;4.246;2023-06-19T00:25:27;19.70;99.90
53410;DHT22;66590;50.734;4.246;2023-06-19T00:27:54;19.50;99.90
53410;DHT22;66590;50.734;4.246;2023-06-19T00:30:21;19.60;99.90
53410;DHT22;66590;50.734;4.246;2023-06-19T00:32:48;19.70;99.90
53410;DHT22;66590;50.734;4.246;2023-06-19T00:35:16;19.60;99.90
53410;DHT22;66590;50.734;4.246;2023-06-19T00:37:44;19.60;99.90
53410;DHT22;66590;50.734;4.246;2023-06-19T00:40:19;19.60;99.90
53410;DHT22;66590;50.734;4.246;2023-06-19T00:42:48;19.90;99.90
53410;DHT22;66590;50.734;4.246;2023-06-19T00:45:15;19.80;99.90
53410;DHT22;66590;50.734;4.246;2023-06-19T00:47:42;19.70;99.90
53410;DHT22;66590;50.734;4.246;2023-06-19T00:50:10;19.60;99.90
53410;DHT22;66590;50.734;4.246;2023-06-19T00:52:37;19.70;99.90
53410;DHT22;66590;50.734;4.246;2023-06-19T00:55:07;19.70;99.90
53410;DHT22;66590;50.734;4.246;2023-06-19T00:57:34;19.80;99.90
53410;DHT22;66590;50.734;4.246;2023-06-19T01:00:02;19.80;99.90
53410;DHT22;66590;50.734;4.246;2023-06-19T01:02:29;19.80;99.90
53410;DHT22;66590;50.734;4.246;2023-06-19T01:04:57;19.80;99.90
53410;DHT22;66590;50.734;4.246;2023-06-19T01:07:30;19.90;99.90
53410;DHT22;66590;50.734;4.246;2023-06-19T01:10:02;19.80;99.90
53410;DHT22;66590;50.734;4.246;2023-06-19T01:12:34;19.70;99.90
53410;DHT22;66590;50.734;4.246;2023-06-19T01:15:04;19.70;99.90
53410;DHT22;66590;50.734;4.246;2023-06-19T01:17:32;19.50;99.90
53410;DHT22;66590;50.734;4.246;2023-06-19T01:19:59;19.60;99.90
53410;DHT22;66590;50.734;4.246;2023-06-19T01:22:28;19.40;99.90
53410;DHT22;66590;50.734;4.246;2023-06-19T01:24:56;19.50;99.90
53410;DHT22;66590;50.734;4.246;2023-06-19T01:27:25;19.60;99.90
53410;DHT22;66590;50.734;4.246;2023-06-19T01:29:52;19.70;99.90
53410;DHT22;66590;50.734;4.246;2023-06-19T01:32:22;19.80;99.90
53410;DHT22;66590;50.734;4.246;2023-06-19T01:34:52;19.90;99.90
53410;DHT22;66590;50.734;4.246;2023-06-19T01:37:21;19.60;99.90
53410;DHT22;66590;50.734;4.246;2023-06-19T01:39:52;19.50;99.90
53410;DHT22;66590;50.734;4.246;2023-06-19T01:42:19;19.50;99.90
53410;DHT22;66590;50.734;4.246;2023-06-19T01:44:47;19.60;99.90
53410;DHT22;66590;50.734;4.246;2023-06-19T01:47:14;19.80;99.90
53410;DHT22;66590;50.734;4.246;2023-06-19T01:49:41;19.70;99.90
53410;DHT22;66590;50.734;4.246;2023-06-19T01:52:08;19.70;99.90
53410;DHT22;66590;50.734;4.246;2023-06-19T01:54:35;19.80;99.90
53410;DHT22;66590;50.734;4.246;2023-06-19T01:57:05;19.70;99.90
53410;DHT22;66590;50.734;4.246;2023-06-19T01:59:32;19.70;99.90
53410;DHT22;66590;50.734;4.246;2023-06-19T02:01:59;19.80;99.90
53410;DHT22;66590;50.734;4.246;2023-06-19T02:04:26;19.80;99.90
53410;DHT22;66590;50.734;4.246;2023-06-19T02:06:53;19.80;99.90
53410;DHT22;66590;50.734;4.246;2023-06-19T02:09:20;19.80;99.90
53410;DHT22;66590;50.734;4.246;2023-06-19T02:11:47;19.90;99.90
53410;DHT22;66590;50.734;4.246;2023-06-19T02:14:15;19.90;99.90
53410;DHT22;66590;50.734;4.246;2023-06-19T02:16:42;19.80;99.90
53410;DHT22;66590;50.734;4.246;2023-06-19T02:19:10;19.70;99.90
53410;DHT22;66590;50.734;4.246;2023-06-19T02:21:37;19.50;99.90
53410;DHT22;66590;50.734;4.246;2023-06-19T02:24:04;19.50;99.90
53410;DHT22;66590;50.734;4.246;2023-06-19T02:26:31;19.60;99.90
53410;DHT22;66590;50.734;4.246;2023-06-19T02:28:59;19.60;99.90
53410;DHT22;66590;50.734;4.246;2023-06-19T02:31:27;19.50;99.90
53410;DHT22;66590;50.734;4.246;2023-06-19T02:33:54;19.70;99.90
53410;DHT22;66590;50.734;4.246;2023-06-19T02:36:21;19.60;99.90
53410;DHT22;66590;50.734;4.246;2023-06-19T02:38:48;19.40;99.90
53410;DHT22;66590;50.734;4.246;2023-06-19T02:41:15;19.30;99.90
53410;DHT22;66590;50.734;4.246;2023-06-19T02:43:43;19.10;99.90
53410;DHT22;66590;50.734;4.246;2023-06-19T02:46:11;19.10;99.90
53410;DHT22;66590;50.734;4.246;2023-06-19T02:48:40;19.30;99.90
53410;DHT22;66590;50.734;4.246;2023-06-19T02:51:08;19.10;99.90
53410;DHT22;66590;50.734;4.246;2023-06-19T02:53:35;19.20;99.90
53410;DHT22;66590;50.734;4.246;2023-06-19T02:56:02;19.20;99.90
53410;DHT22;66590;50.734;4.246;2023-06-19T02:58:29;18.90;99.90
53410;DHT22;66590;50.734;4.246;2023-06-19T03:00:56;18.80;99.90
53410;DHT22;66590;50.734;4.246;2023-06-19T03:03:23;18.70;99.90
53410;DHT22;66590;50.734;4.246;2023-06-19T03:05:52;18.70;99.90
53410;DHT22;66590;50.734;4.246;2023-06-19T03:08:19;18.60;99.90
53410;DHT22;66590;50.734;4.246;2023-06-19T03:10:46;18.50;99.90
53410;DHT22;66590;50.734;4.246;2023-06-19T03:13:13;18.50;99.90
53410;DHT22;66590;50.734;4.246;2023-06-19T03:15:40;18.50;99.90
53410;DHT22;66590;50.734;4.246;2023-06-19T03:18:07;18.50;99.90
53410;DHT22;66590;50.734;4.246;2023-06-19T03:20:34;18.40;99.90
53410;DHT22;66590;50.734;4.246;2023-06-19T03:23:02;18.50;99.90
53410;DHT22;66590;50.734;4.246;2023-06-19T03:25:30;18.50;99.90
53410;DHT22;66590;50.734;4.246;2023-06-19T03:27:57;18.50;99.90
53410;DHT22;66590;50.734;4.246;2023-06-19T03:30:24;18.50;99.90
53410;DHT22;66590;50.734;4.246;2023-06-19T03:32:51;18.50;99.90
53410;DHT22;66590;50.734;4.246;2023-06-19T03:35:18;18.50;99.90
53410;DHT22;66590;50.734;4.246;2023-06-19T03:37:45;18.40;99.90
53410;DHT22;66590;50.734;4.246;2023-06-19T03:40:14;18.40;99.90
53410;DHT22;66590;50.734;4.246;2023-06-19T03:42:42;18.30;99.90
53410;DHT22;66590;50.734;4.246;2023-06-19T03:45:10;18.40;99.90
53410;DHT22;66590;50.734;4.246;2023-06-19T03:47:37;18.40;99.90
53410;DHT22;66590;50.734;4.246;2023-06-19T03:50:05;18.40;99.90
53410;DHT22;66590;50.734;4.246;2023-06-19T03:52:46;18.50;99.90
53410;DHT22;66590;50.734;4.246;2023-06-19T03:55:15;18.30;99.90
53410;DHT22;66590;50.734;4.246;2023-06-19T03:57:42;18.20;99.90
53410;DHT22;66590;50.734;4.246;2023-06-19T04:00:09;18.10;99.90
53410;DHT22;66590;50.734;4.246;2023-06-19T04:02:37;18.10;99.90
53410;DHT22;66590;50.734;4.246;2023-06-19T04:05:04;18.10;99.90
53410;DHT22;66590;50.734;4.246;2023-06-19T04:07:32;18.10;99.90
53410;DHT22;66590;50.734;4.246;2023-06-19T04:09:59;18.20;99.90
53410;DHT22;66590;50.734;4.246;2023-06-19T04:12:27;18.10;99.90
53410;DHT22;66590;50.734;4.246;2023-06-19T04:14:54;18.10;99.90
53410;DHT22;66590;50.734;4.246;2023-06-19T04:17:21;18.00;99.90
53410;DHT22;66590;50.734;4.246;2023-06-19T04:19:48;18.00;99.90
53410;DHT22;66590;50.734;4.246;2023-06-19T04:22:15;18.00;99.90
53410;DHT22;66590;50.734;4.246;2023-06-19T04:24:42;17.90;99.90
53410;DHT22;66590;50.734;4.246;2023-06-19T04:27:09;18.00;99.90
53410;DHT22;66590;50.734;4.246;2023-06-19T04:29:38;18.00;99.90
53410;DHT22;66590;50.734;4.246;2023-06-19T04:32:06;17.90;99.90
53410;DHT22;66590;50.734;4.246;2023-06-19T04:34:33;18.00;99.90
53410;DHT22;66590;50.734;4.246;2023-06-19T04:37:00;18.00;99.90
53410;DHT22;66590;50.734;4.246;2023-06-19T04:39:27;18.10;99.90
53410;DHT22;66590;50.734;4.246;2023-06-19T04:41:54;18.20;99.90
53410;DHT22;66590;50.734;4.246;2023-06-19T04:44:21;18.10;99.90
53410;DHT22;66590;50.734;4.246;2023-06-19T04:46:49;18.10;99.90
53410;DHT22;66590;50.734;4.246;2023-06-19T04:49:16;18.00;99.90
53410;DHT22;66590;50.734;4.246;2023-06-19T04:51:43;18.10;99.90
53410;DHT22;66590;50.734;4.246;2023-06-19T04:54:10;18.00;99.90
53410;DHT22;66590;50.734;4.246;2023-06-19T04:56:37;18.00;99.90
53410;DHT22;66590;50.734;4.246;2023-06-19T04:59:05;18.10;99.90
53410;DHT22;66590;50.734;4.246;2023-06-19T05:01:32;18.10;99.90
53410;DHT22;66590;50.734;4.246;2023-06-19T05:04:00;18.00;99.90
53410;DHT22;66590;50.734;4.246;2023-06-19T05:06:27;18.10;99.90
53410;DHT22;66590;50.734;4.246;2023-06-19T05:08:54;18.20;99.90
53410;DHT22;66590;50.734;4.246;2023-06-19T05:11:21;18.40;99.90
53410;DHT22;66590;50.734;4.246;2023-06-19T05:13:48;18.70;99.90
53410;DHT22;66590;50.734;4.246;2023-06-19T05:16:15;18.90;99.90
53410;DHT22;66590;50.734;4.246;2023-06-19T05:18:43;18.80;99.90
53410;DHT22;66590;50.734;4.246;2023-06-19T05:21:11;18.70;99.90
53410;DHT22;66590;50.734;4.246;2023-06-19T05:23:38;18.50;99.90
53410;DHT22;66590;50.734;4.246;2023-06-19T05:26:05;18.50;99.90
53410;DHT22;66590;50.734;4.246;2023-06-19T05:28:33;18.30;99.90
53410;DHT22;66590;50.734;4.246;2023-06-19T05:31:00;18.10;99.90
53410;DHT22;66590;50.734;4.246;2023-06-19T05:33:28;17.90;99.90
53410;DHT22;66590;50.734;4.246;2023-06-19T05:35:55;17.90;99.90
53410;DHT22;66590;50.734;4.246;2023-06-19T05:38:23;17.70;99.90
53410;DHT22;66590;50.734;4.246;2023-06-19T05:40:50;17.60;99.90
53410;DHT22;66590;50.734;4.246;2023-06-19T05:43:18;17.70;99.90
53410;DHT22;66590;50.734;4.246;2023-06-19T05:45:45;17.70;99.90
53410;DHT22;66590;50.734;4.246;2023-06-19T05:48:12;17.70;99.90
53410;DHT22;66590;50.734;4.246;2023-06-19T05:50:39;17.70;99.90
53410;DHT22;66590;50.734;4.246;2023-06-19T05:53:06;17.70;99.90
53410;DHT22;66590;50.734;4.246;2023-06-19T05:55:34;17.80;99.90
53410;DHT22;66590;50.734;4.246;2023-06-19T05:58:02;17.70;99.90
53410;DHT22;66590;50.734;4.246;2023-06-19T06:00:29;17.60;99.90
53410;DHT22;66590;50.734;4.246;2023-06-19T06:02:56;17.50;99.90
53410;DHT22;66590;50.734;4.246;2023-06-19T06:05:24;17.70;99.90
53410;DHT22;66590;50.734;4.246;2023-06-19T06:07:51;17.80;99.90
53410;DHT22;66590;50.734;4.246;2023-06-19T06:10:19;17.70;99.90
53410;DHT22;66590;50.734;4.246;2023-06-19T06:12:48;17.80;99.90
53410;DHT22;66590;50.734;4.246;2023-06-19T06:15:15;17.90;99.90
53410;DHT22;66590;50.734;4.246;2023-06-19T06:17:43;18.00;99.90
53410;DHT22;66590;50.734;4.246;2023-06-19T06:20:10;18.00;99.90
53410;DHT22;66590;50.734;4.246;2023-06-19T06:22:38;18.00;99.90
53410;DHT22;66590;50.734;4.246;2023-06-19T06:25:05;18.00;99.90
53410;DHT22;66590;50.734;4.246;2023-06-19T06:27:33;18.10;99.90
53410;DHT22;66590;50.734;4.246;2023-06-19T06:30:02;18.00;99.90
53410;DHT22;66590;50.734;4.246;2023-06-19T06:32:30;17.90;99.90
53410;DHT22;66590;50.734;4.246;2023-06-19T06:34:57;17.90;99.90
53410;DHT22;66590;50.734;4.246;2023-06-19T06:37:24;18.10;99.90
53410;DHT22;66590;50.734;4.246;2023-06-19T06:39:51;18.10;99.90
53410;DHT22;66590;50.734;4.246;2023-06-19T06:42:18;18.40;99.90
53410;DHT22;66590;50.734;4.246;2023-06-19T06:44:45;18.70;99.90
53410;DHT22;66590;50.734;4.246;2023-06-19T06:47:14;19.00;99.90
53410;DHT22;66590;50.734;4.246;2023-06-19T06:49:41;19.70;99.90
53410;DHT22;66590;50.734;4.246;2023-06-19T06:52:08;20.40;99.90
53410;DHT22;66590;50.734;4.246;2023-06-19T06:54:35;20.50;99.90
53410;DHT22;66590;50.734;4.246;2023-06-19T06:57:02;21.10;99.90
53410;DHT22;66590;50.734;4.246;2023-06-19T06:59:29;21.20;99.90
53410;DHT22;66590;50.734;4.246;2023-06-19T07:01:57;21.20;99.90
53410;DHT22;66590;50.734;4.246;2023-06-19T07:04:25;21.00;99.90
53410;DHT22;66590;50.734;4.246;2023-06-19T07:06:52;21.00;99.90
53410;DHT22;66590;50.734;4.246;2023-06-19T07:09:20;20.80;99.90
53410;DHT22;66590;50.734;4.246;2023-06-19T07:11:47;20.70;99.90
53410;DHT22;66590;50.734;4.246;2023-06-19T07:14:16;20.70;99.90
53410;DHT22;66590;50.734;4.246;2023-06-19T07:16:44;20.50;99.90
53410;DHT22;66590;50.734;4.246;2023-06-19T07:19:11;20.20;99.90
53410;DHT22;66590;50.734;4.246;2023-06-19T07:21:40;20.10;99.90
53410;DHT22;66590;50.734;4.246;2023-06-19T07:24:07;20.40;99.90
53410;DHT22;66590;50.734;4.246;2023-06-19T07:26:35;20.30;99.90
53410;DHT22;66590;50.734;4.246;2023-06-19T07:29:02;20.40;99.90
53410;DHT22;66590;50.734;4.246;2023-06-19T07:31:29;20.20;99.90
53410;DHT22;66590;50.734;4.246;2023-06-19T07:33:56;20.60;99.90
53410;DHT22;66590;50.734;4.246;2023-06-19T07:36:23;21.20;99.90
53410;DHT22;66590;50.734;4.246;2023-06-19T07:38:52;21.00;99.90
53410;DHT22;66590;50.734;4.246;2023-06-19T07:41:19;20.20;99.90
53410;DHT22;66590;50.734;4.246;2023-06-19T07:43:46;20.30;99.90
53410;DHT22;66590;50.734;4.246;2023-06-19T07:46:14;20.10;99.90
53410;DHT22;66590;50.734;4.246;2023-06-19T07:48:42;19.50;99.90
53410;DHT22;66590;50.734;4.246;2023-06-19T07:51:09;19.50;99.90
53410;DHT22;66590;50.734;4.246;2023-06-19T07:53:36;19.40;99.90
53410;DHT22;66590;50.734;4.246;2023-06-19T07:56:04;19.50;99.90
53410;DHT22;66590;50.734;4.246;2023-06-19T07:58:31;19.90;99.90
53410;DHT22;66590;50.734;4.246;2023-06-19T08:00:58;20.80;99.90
53410;DHT22;66590;50.734;4.246;2023-06-19T08:03:26;21.50;99.90
53410;DHT22;66590;50.734;4.246;2023-06-19T08:05:53;21.80;99.90
53410;DHT22;66590;50.734;4.246;2023-06-19T08:08:20;22.10;99.90
53410;DHT22;66590;50.734;4.246;2023-06-19T08:10:47;21.70;99.90
53410;DHT22;66590;50.734;4.246;2023-06-19T08:13:16;21.00;99.90
53410;DHT22;66590;50.734;4.246;2023-06-19T08:15:43;21.40;99.90
53410;DHT22;66590;50.734;4.246;2023-06-19T08:18:10;22.00;99.90
53410;DHT22;66590;50.734;4.246;2023-06-19T08:20:37;21.80;99.90
53410;DHT22;66590;50.734;4.246;2023-06-19T08:23:04;21.30;99.90
53410;DHT22;66590;50.734;4.246;2023-06-19T08:25:32;21.40;99.90
53410;DHT22;66590;50.734;4.246;2023-06-19T08:28:00;21.80;99.90
53410;DHT22;66590;50.734;4.246;2023-06-19T08:30:28;22.40;99.90
53410;DHT22;66590;50.734;4.246;2023-06-19T08:32:55;22.70;99.90
53410;DHT22;66590;50.734;4.246;2023-06-19T08:35:23;23.20;99.90
53410;DHT22;66590;50.734;4.246;2023-06-19T08:37:50;24.10;99.90
53410;DHT22;66590;50.734;4.246;2023-06-19T08:40:19;23.90;99.90
53410;DHT22;66590;50.734;4.246;2023-06-19T08:42:47;24.60;99.90
53410;DHT22;66590;50.734;4.246;2023-06-19T08:45:14;24.90;99.90
53410;DHT22;66590;50.734;4.246;2023-06-19T08:47:42;24.70;99.90
53410;DHT22;66590;50.734;4.246;2023-06-19T08:50:10;23.50;99.90
53410;DHT22;66590;50.734;4.246;2023-06-19T08:52:37;23.60;99.90
53410;DHT22;66590;50.734;4.246;2023-06-19T08:55:05;23.40;99.90
53410;DHT22;66590;50.734;4.246;2023-06-19T08:57:34;23.50;99.90
53410;DHT22;66590;50.734;4.246;2023-06-19T09:00:02;24.30;99.90
53410;DHT22;66590;50.734;4.246;2023-06-19T09:02:37;24.80;99.90
53410;DHT22;66590;50.734;4.246;2023-06-19T09:05:14;24.70;99.90
53410;DHT22;66590;50.734;4.246;2023-06-19T09:07:42;25.10;99.90
53410;DHT22;66590;50.734;4.246;2023-06-19T09:10:17;25.00;99.90
53410;DHT22;66590;50.734;4.246;2023-06-19T09:12:56;25.10;99.90
53410;DHT22;66590;50.734;4.246;2023-06-19T09:15:23;25.30;99.90
53410;DHT22;66590;50.734;4.246;2023-06-19T09:18:00;25.20;99.50
53410;DHT22;66590;50.734;4.246;2023-06-19T09:20:29;25.60;99.40
53410;DHT22;66590;50.734;4.246;2023-06-19T09:22:56;26.00;98.50
53410;DHT22;66590;50.734;4.246;2023-06-19T09:25:23;25.40;98.50
53410;DHT22;66590;50.734;4.246;2023-06-19T09:27:50;25.40;99.20
53410;DHT22;66590;50.734;4.246;2023-06-19T09:30:17;25.70;98.80
53410;DHT22;66590;50.734;4.246;2023-06-19T09:32:44;25.60;97.90
53410;DHT22;66590;50.734;4.246;2023-06-19T09:35:11;25.10;99.20
53410;DHT22;66590;50.734;4.246;2023-06-19T09:37:40;24.50;99.90
53410;DHT22;66590;50.734;4.246;2023-06-19T09:40:08;24.80;99.90
53410;DHT22;66590;50.734;4.246;2023-06-19T09:42:36;25.00;99.90
53410;DHT22;66590;50.734;4.246;2023-06-19T09:45:05;25.00;99.20
53410;DHT22;66590;50.734;4.246;2023-06-19T09:47:36;25.40;98.50
53410;DHT22;66590;50.734;4.246;2023-06-19T09:50:05;25.70;97.60
53410;DHT22;66590;50.734;4.246;2023-06-19T09:52:32;25.10;98.50
53410;DHT22;66590;50.734;4.246;2023-06-19T09:55:03;25.00;98.50
53410;DHT22;66590;50.734;4.246;2023-06-19T09:57:31;24.60;98.90
53410;DHT22;66590;50.734;4.246;2023-06-19T09:59:59;24.30;99.90
53410;DHT22;66590;50.734;4.246;2023-06-19T10:02:28;24.50;99.50
53410;DHT22;66590;50.734;4.246;2023-06-19T10:04:56;23.90;99.30
53410;DHT22;66590;50.734;4.246;2023-06-19T10:07:25;24.00;99.90
53410;DHT22;66590;50.734;4.246;2023-06-19T10:10:02;24.10;99.90
53410;DHT22;66590;50.734;4.246;2023-06-19T10:12:40;25.00;98.40
53410;DHT22;66590;50.734;4.246;2023-06-19T10:15:12;25.60;98.00
53410;DHT22;66590;50.734;4.246;2023-06-19T10:17:46;26.00;97.70
53410;DHT22;66590;50.734;4.246;2023-06-19T10:20:25;25.50;98.10
53410;DHT22;66590;50.734;4.246;2023-06-19T10:22:56;25.10;98.90
53410;DHT22;66590;50.734;4.246;2023-06-19T10:25:29;25.00;99.40
53410;DHT22;66590;50.734;4.246;2023-06-19T10:27:58;25.40;99.00
53410;DHT22;66590;50.734;4.246;2023-06-19T10:30:25;25.60;98.60
53410;DHT22;66590;50.734;4.246;2023-06-19T10:32:53;26.00;98.20
53410;DHT22;66590;50.734;4.246;2023-06-19T10:35:20;25.90;97.80
53410;DHT22;66590;50.734;4.246;2023-06-19T10:37:48;25.40;98.50
53410;DHT22;66590;50.734;4.246;2023-06-19T10:40:15;24.50;99.20
53410;DHT22;66590;50.734;4.246;2023-06-19T10:42:44;24.50;99.90
53410;DHT22;66590;50.734;4.246;2023-06-19T10:45:13;25.20;99.70
53410;DHT22;66590;50.734;4.246;2023-06-19T10:47:40;26.20;98.30
53410;DHT22;66590;50.734;4.246;2023-06-19T10:50:10;26.90;96.30
53410;DHT22;66590;50.734;4.246;2023-06-19T10:52:40;27.20;96.10
53410;DHT22;66590;50.734;4.246;2023-06-19T10:55:08;27.30;95.60
53410;DHT22;66590;50.734;4.246;2023-06-19T10:57:35;27.10;94.50
53410;DHT22;66590;50.734;4.246;2023-06-19T11:00:06;27.10;94.60
53410;DHT22;66590;50.734;4.246;2023-06-19T11:02:33;27.30;94.40
53410;DHT22;66590;50.734;4.246;2023-06-19T11:05:02;27.70;93.80
53410;DHT22;66590;50.734;4.246;2023-06-19T11:07:32;27.90;93.20
53410;DHT22;66590;50.734;4.246;2023-06-19T11:09:59;27.10;93.10
53410;DHT22;66590;50.734;4.246;2023-06-19T11:12:26;26.40;94.70
53410;DHT22;66590;50.734;4.246;2023-06-19T11:14:53;26.40;94.80
53410;DHT22;66590;50.734;4.246;2023-06-19T11:17:22;27.00;94.20
53410;DHT22;66590;50.734;4.246;2023-06-19T11:19:50;26.70;93.80
53410;DHT22;66590;50.734;4.246;2023-06-19T11:22:17;26.10;94.10
53410;DHT22;66590;50.734;4.246;2023-06-19T11:24:44;26.30;93.00
53410;DHT22;66590;50.734;4.246;2023-06-19T11:27:18;26.90;92.60
53410;DHT22;66590;50.734;4.246;2023-06-19T11:29:45;26.20;92.70
53410;DHT22;66590;50.734;4.246;2023-06-19T11:32:14;25.40;94.40
53410;DHT22;66590;50.734;4.246;2023-06-19T11:34:43;25.60;95.80
53410;DHT22;66590;50.734;4.246;2023-06-19T11:37:13;26.60;91.30
53410;DHT22;66590;50.734;4.246;2023-06-19T11:39:40;27.00;88.00
53410;DHT22;66590;50.734;4.246;2023-06-19T11:42:07;27.80;86.70
53410;DHT22;66590;50.734;4.246;2023-06-19T11:44:35;27.80;86.00
53410;DHT22;66590;50.734;4.246;2023-06-19T11:47:06;28.00;86.60
53410;DHT22;66590;50.734;4.246;2023-06-19T11:49:35;28.50;84.10
53410;DHT22;66590;50.734;4.246;2023-06-19T11:52:04;28.40;83.80
53410;DHT22;66590;50.734;4.246;2023-06-19T11:54:31;28.30;81.80
53410;DHT22;66590;50.734;4.246;2023-06-19T11:56:58;28.20;82.40
53410;DHT22;66590;50.734;4.246;2023-06-19T11:59:25;28.60;81.70
53410;DHT22;66590;50.734;4.246;2023-06-19T12:01:53;28.80;81.70
53410;DHT22;66590;50.734;4.246;2023-06-19T12:04:20;28.80;83.70
53410;DHT22;66590;50.734;4.246;2023-06-19T12:06:47;29.40;80.90
53410;DHT22;66590;50.734;4.246;2023-06-19T12:09:16;28.90;78.30
53410;DHT22;66590;50.734;4.246;2023-06-19T12:11:43;28.80;76.70
53410;DHT22;66590;50.734;4.246;2023-06-19T12:14:10;29.10;78.70
53410;DHT22;66590;50.734;4.246;2023-06-19T12:16:37;28.60;80.90
53410;DHT22;66590;50.734;4.246;2023-06-19T12:19:04;29.00;80.10
53410;DHT22;66590;50.734;4.246;2023-06-19T12:21:31;28.80;78.00
53410;DHT22;66590;50.734;4.246;2023-06-19T12:24:05;28.30;78.90
53410;DHT22;66590;50.734;4.246;2023-06-19T12:26:34;27.80;81.30
53410;DHT22;66590;50.734;4.246;2023-06-19T12:29:01;27.40;82.20
53410;DHT22;66590;50.734;4.246;2023-06-19T12:31:28;27.70;81.00
53410;DHT22;66590;50.734;4.246;2023-06-19T12:33:55;28.30;79.70
53410;DHT22;66590;50.734;4.246;2023-06-19T12:36:26;28.50;81.70
53410;DHT22;66590;50.734;4.246;2023-06-19T12:38:53;28.50;82.20
53410;DHT22;66590;50.734;4.246;2023-06-19T12:41:20;28.60;83.20
53410;DHT22;66590;50.734;4.246;2023-06-19T12:43:49;29.10;79.70
53410;DHT22;66590;50.734;4.246;2023-06-19T12:46:16;28.90;79.20
53410;DHT22;66590;50.734;4.246;2023-06-19T12:48:43;28.70;81.20
53410;DHT22;66590;50.734;4.246;2023-06-19T12:51:10;28.90;80.60
53410;DHT22;66590;50.734;4.246;2023-06-19T12:53:37;29.20;81.40
53410;DHT22;66590;50.734;4.246;2023-06-19T12:56:04;28.30;83.80
53410;DHT22;66590;50.734;4.246;2023-06-19T12:58:38;28.90;83.30
53410;DHT22;66590;50.734;4.246;2023-06-19T13:01:06;29.30;81.00
53410;DHT22;66590;50.734;4.246;2023-06-19T13:03:33;29.40;79.70
53410;DHT22;66590;50.734;4.246;2023-06-19T13:06:00;29.50;79.30
53410;DHT22;66590;50.734;4.246;2023-06-19T13:08:27;29.50;77.80
53410;DHT22;66590;50.734;4.246;2023-06-19T13:10:55;29.60;80.30
53410;DHT22;66590;50.734;4.246;2023-06-19T13:13:22;29.90;78.40
53410;DHT22;66590;50.734;4.246;2023-06-19T13:15:49;30.20;76.60
53410;DHT22;66590;50.734;4.246;2023-06-19T13:18:18;30.50;75.50
53410;DHT22;66590;50.734;4.246;2023-06-19T13:20:45;30.00;75.90
53410;DHT22;66590;50.734;4.246;2023-06-19T13:23:12;29.50;76.50
53410;DHT22;66590;50.734;4.246;2023-06-19T13:25:39;28.90;78.20
53410;DHT22;66590;50.734;4.246;2023-06-19T13:28:06;29.00;78.50
53410;DHT22;66590;50.734;4.246;2023-06-19T13:30:33;29.50;77.60
53410;DHT22;66590;50.734;4.246;2023-06-19T13:33:00;29.00;79.20
53410;DHT22;66590;50.734;4.246;2023-06-19T13:35:32;28.20;80.10
53410;DHT22;66590;50.734;4.246;2023-06-19T13:37:59;28.10;82.50
53410;DHT22;66590;50.734;4.246;2023-06-19T13:40:26;28.30;82.00
53410;DHT22;66590;50.734;4.246;2023-06-19T13:42:53;28.50;81.00
53410;DHT22;66590;50.734;4.246;2023-06-19T13:45:20;28.90;79.60
53410;DHT22;66590;50.734;4.246;2023-06-19T13:47:47;29.40;79.90
53410;DHT22;66590;50.734;4.246;2023-06-19T13:50:14;29.30;79.10
53410;DHT22;66590;50.734;4.246;2023-06-19T13:52:42;29.60;78.50
53410;DHT22;66590;50.734;4.246;2023-06-19T13:55:09;29.60;78.00
53410;DHT22;66590;50.734;4.246;2023-06-19T13:57:36;29.90;76.40
53410;DHT22;66590;50.734;4.246;2023-06-19T14:00:04;29.50;77.60
53410;DHT22;66590;50.734;4.246;2023-06-19T14:02:32;29.50;78.10
53410;DHT22;66590;50.734;4.246;2023-06-19T14:04:59;29.90;77.10
53410;DHT22;66590;50.734;4.246;2023-06-19T14:07:26;30.20;76.40
53410;DHT22;66590;50.734;4.246;2023-06-19T14:09:54;29.70;75.80
53410;DHT22;66590;50.734;4.246;2023-06-19T14:12:21;29.40;78.20
53410;DHT22;66590;50.734;4.246;2023-06-19T14:14:48;29.40;76.50
53410;DHT22;66590;50.734;4.246;2023-06-19T14:17:15;29.80;76.40
53410;DHT22;66590;50.734;4.246;2023-06-19T14:19:42;29.70;77.00
53410;DHT22;66590;50.734;4.246;2023-06-19T14:22:09;29.30;76.20
53410;DHT22;66590;50.734;4.246;2023-06-19T14:24:36;28.70;77.90
53410;DHT22;66590;50.734;4.246;2023-06-19T14:27:05;28.50;79.50
53410;DHT22;66590;50.734;4.246;2023-06-19T14:29:32;28.90;79.30
53410;DHT22;66590;50.734;4.246;2023-06-19T14:31:59;29.00;79.00
53410;DHT22;66590;50.734;4.246;2023-06-19T14:34:26;29.20;78.00
53410;DHT22;66590;50.734;4.246;2023-06-19T14:36:53;29.70;73.40
53410;DHT22;66590;50.734;4.246;2023-06-19T14:39:20;29.70;73.60
53410;DHT22;66590;50.734;4.246;2023-06-19T14:41:47;30.10;72.90
53410;DHT22;66590;50.734;4.246;2023-06-19T14:44:15;30.40;72.80
53410;DHT22;66590;50.734;4.246;2023-06-19T14:46:42;29.90;73.50
53410;DHT22;66590;50.734;4.246;2023-06-19T14:49:11;30.30;73.30
53410;DHT22;66590;50.734;4.246;2023-06-19T14:51:38;30.30;73.40
53410;DHT22;66590;50.734;4.246;2023-06-19T14:54:05;29.60;75.10
53410;DHT22;66590;50.734;4.246;2023-06-19T14:56:33;29.20;75.70
53410;DHT22;66590;50.734;4.246;2023-06-19T14:59:00;28.40;76.30
53410;DHT22;66590;50.734;4.246;2023-06-19T15:01:28;28.30;77.90
53410;DHT22;66590;50.734;4.246;2023-06-19T15:03:56;28.70;77.40
53410;DHT22;66590;50.734;4.246;2023-06-19T15:06:23;29.20;75.80
53410;DHT22;66590;50.734;4.246;2023-06-19T15:08:50;29.20;76.00
53410;DHT22;66590;50.734;4.246;2023-06-19T15:11:17;29.00;76.00
53410;DHT22;66590;50.734;4.246;2023-06-19T15:13:44;28.90;76.10
53410;DHT22;66590;50.734;4.246;2023-06-19T15:16:11;28.70;76.20
53410;DHT22;66590;50.734;4.246;2023-06-19T15:18:41;28.70;76.30
53410;DHT22;66590;50.734;4.246;2023-06-19T15:21:08;28.90;75.30
53410;DHT22;66590;50.734;4.246;2023-06-19T15:23:35;28.80;76.10
53410;DHT22;66590;50.734;4.246;2023-06-19T15:26:02;28.90;75.00
53410;DHT22;66590;50.734;4.246;2023-06-19T15:28:29;29.00;75.30
53410;DHT22;66590;50.734;4.246;2023-06-19T15:30:56;29.50;75.00
53410;DHT22;66590;50.734;4.246;2023-06-19T15:33:23;29.60;73.80